createdAt,value
2019-02-16T00:00:15.125Z,1.70
2019-02-16T00:02:43.372Z,1.80
2019-02-16T00:05:11.690Z,1.95
2019-02-16T00:07:40.017Z,2.33
2019-02-16T00:10:08.382Z,1.80
2019-02-16T00:12:36.692Z,2.50
2019-02-16T00:15:05.257Z,2.42
2019-02-16T00:17:33.580Z,2.02
2019-02-16T00:20:01.876Z,1.90
2019-02-16T00:22:30.118Z,2.20
2019-02-16T00:24:58.352Z,1.95
2019-02-16T00:27:26.629Z,1.42
2019-02-16T00:29:54.936Z,1.92
2019-02-16T00:32:23.315Z,1.47
2019-02-16T00:34:51.670Z,1.87
2019-02-16T00:37:19.935Z,1.70
2019-02-16T00:39:48.307Z,2.15
2019-02-16T00:42:16.785Z,2.02
2019-02-16T00:44:45.158Z,2.27
2019-02-16T00:47:13.639Z,2.42
2019-02-16T00:49:41.863Z,2.17
2019-02-16T00:52:10.063Z,1.90
2019-02-16T00:54:38.278Z,2.05
2019-02-16T00:57:06.464Z,1.72
2019-02-16T00:59:34.826Z,1.75
2019-02-16T01:04:39.221Z,2.17
2019-02-16T01:07:08.310Z,2.00
2019-02-16T01:09:36.632Z,1.72
2019-02-16T01:12:04.884Z,2.20
2019-02-16T01:14:33.182Z,2.77
2019-02-16T01:17:01.482Z,2.70
2019-02-16T01:19:29.756Z,2.80
2019-02-16T01:21:58.059Z,3.15
2019-02-16T01:24:26.325Z,3.02
2019-02-16T01:26:54.847Z,3.12
2019-02-16T01:29:23.122Z,3.67
2019-02-16T01:31:51.386Z,5.22
2019-02-16T01:34:19.708Z,3.77
2019-02-16T01:36:48.065Z,5.78
2019-02-16T01:39:16.323Z,5.45
2019-02-16T01:41:44.625Z,6.87
2019-02-16T01:44:12.918Z,6.42
2019-02-16T01:46:41.120Z,8.75
2019-02-16T01:49:09.304Z,7.30
2019-02-16T01:51:37.509Z,7.72
2019-02-16T01:54:05.775Z,6.53
2019-02-16T01:56:34.023Z,6.08
2019-02-16T01:59:02.226Z,6.00
2019-02-16T02:01:30.522Z,3.83
2019-02-16T02:03:59.128Z,4.05
2019-02-16T02:06:27.457Z,4.28
2019-02-16T02:08:55.900Z,6.40
2019-02-16T02:11:24.289Z,6.00
2019-02-16T02:13:52.705Z,4.85
2019-02-16T02:16:21.007Z,7.20
2019-02-16T02:18:49.264Z,4.95
2019-02-16T02:21:17.559Z,4.92
2019-02-16T02:23:45.903Z,4.35
2019-02-16T02:26:14.214Z,4.97
2019-02-16T02:28:42.642Z,5.15
2019-02-16T02:31:11.005Z,5.33
2019-02-16T02:33:39.299Z,5.00
2019-02-16T02:36:07.540Z,4.78
2019-02-16T02:38:35.967Z,4.80
2019-02-16T02:41:04.258Z,4.12
2019-02-16T02:43:32.560Z,3.75
2019-02-16T02:46:00.766Z,3.37
2019-02-16T02:48:29.006Z,3.62
2019-02-16T02:50:57.291Z,3.40
2019-02-16T02:53:31.258Z,4.25
2019-02-16T02:55:55.601Z,3.85
2019-02-16T02:58:23.834Z,3.65
2019-02-16T03:00:52.182Z,3.65
2019-02-16T03:03:20.509Z,3.15
2019-02-16T03:05:48.768Z,2.85
2019-02-16T03:08:17.057Z,2.37
2019-02-16T03:10:45.289Z,2.55
2019-02-16T03:13:13.592Z,2.70
2019-02-16T03:15:41.900Z,2.67
2019-02-16T03:18:10.129Z,2.72
2019-02-16T03:20:38.425Z,2.70
2019-02-16T03:23:25.695Z,2.42
2019-02-16T03:26:17.976Z,2.65
2019-02-16T03:29:12.448Z,3.22
2019-02-16T03:32:12.012Z,2.47
2019-02-16T03:35:08.262Z,2.77
2019-02-16T03:38:00.179Z,2.30
2019-02-16T03:40:28.578Z,3.15
2019-02-16T03:42:56.816Z,3.00
2019-02-16T03:45:25.110Z,2.80
2019-02-16T03:47:53.490Z,2.45
2019-02-16T03:50:21.779Z,2.30
2019-02-16T03:52:50.053Z,2.15
2019-02-16T03:55:18.330Z,2.22
2019-02-16T03:57:46.766Z,2.83
2019-02-16T04:00:15.088Z,2.77
2019-02-16T04:02:43.527Z,1.82
2019-02-16T04:05:11.838Z,2.47
2019-02-16T04:07:40.141Z,2.90
2019-02-16T04:10:08.595Z,2.90
2019-02-16T04:12:36.908Z,2.30
2019-02-16T04:15:05.409Z,2.20
2019-02-16T04:17:33.643Z,2.30
2019-02-16T04:20:02.027Z,2.52
2019-02-16T04:22:30.561Z,2.50
2019-02-16T04:24:58.883Z,2.37
2019-02-16T04:27:27.185Z,2.08
2019-02-16T04:30:03.391Z,2.12
2019-02-16T04:32:31.720Z,3.00
2019-02-16T04:35:00.508Z,1.72
2019-02-16T04:37:28.646Z,1.62
2019-02-16T04:39:56.924Z,2.45
2019-02-16T04:42:25.182Z,2.37
2019-02-16T04:44:53.563Z,2.67
2019-02-16T04:47:21.790Z,2.60
2019-02-16T04:49:50.125Z,2.83
2019-02-16T04:52:18.315Z,2.50
2019-02-16T04:54:46.773Z,2.77
2019-02-16T04:57:15.156Z,2.55
2019-02-16T04:59:43.337Z,2.17
2019-02-16T05:02:11.574Z,2.47
2019-02-16T05:04:39.823Z,2.30
2019-02-16T05:07:08.388Z,2.12
2019-02-16T05:09:36.713Z,2.77
2019-02-16T05:12:04.987Z,3.05
2019-02-16T05:14:33.284Z,2.70
2019-02-16T05:17:01.556Z,2.72
2019-02-16T05:19:29.831Z,2.75
2019-02-16T05:21:58.048Z,2.90
2019-02-16T05:24:26.247Z,2.60
2019-02-16T05:26:54.436Z,2.15
2019-02-16T05:29:22.763Z,2.77
2019-02-16T05:31:50.967Z,2.70
2019-02-16T05:34:19.248Z,3.05
2019-02-16T05:36:47.604Z,2.65
2019-02-16T05:39:15.945Z,3.35
2019-02-16T05:41:44.401Z,2.75
2019-02-16T05:44:12.602Z,3.40
2019-02-16T05:46:41.080Z,3.22
2019-02-16T05:49:09.359Z,3.25
2019-02-16T05:51:37.590Z,3.15
2019-02-16T05:54:05.888Z,3.37
2019-02-16T05:56:34.251Z,3.70
2019-02-16T05:59:02.608Z,3.08
2019-02-16T06:01:30.873Z,3.30
2019-02-16T06:03:59.144Z,3.30
2019-02-16T06:06:27.403Z,2.87
2019-02-16T06:08:55.651Z,2.58
2019-02-16T06:11:23.909Z,4.25
2019-02-16T06:13:52.234Z,3.95
2019-02-16T06:16:20.577Z,3.10
2019-02-16T06:18:48.919Z,3.42
2019-02-16T06:21:17.227Z,2.65
2019-02-16T06:23:45.443Z,3.22
2019-02-16T06:26:13.620Z,3.77
2019-02-16T06:28:41.849Z,3.52
2019-02-16T06:31:10.164Z,2.90
2019-02-16T06:33:38.440Z,2.62
2019-02-16T06:36:25.739Z,2.92
2019-02-16T06:38:54.016Z,3.45
2019-02-16T06:41:22.315Z,2.42
2019-02-16T06:43:50.737Z,3.10
2019-02-16T06:46:19.070Z,3.22
2019-02-16T06:48:47.437Z,3.55
2019-02-16T06:51:15.731Z,3.55
2019-02-16T06:53:44.213Z,3.65
2019-02-16T06:56:31.374Z,4.40
2019-02-16T06:58:59.956Z,4.53
2019-02-16T07:01:28.253Z,4.90
2019-02-16T07:03:56.494Z,5.22
2019-02-16T07:06:24.757Z,5.90
2019-02-16T07:08:53.208Z,5.22
2019-02-16T07:11:21.506Z,5.22
2019-02-16T07:13:49.728Z,5.62
2019-02-16T07:16:42.741Z,5.33
2019-02-16T07:19:21.326Z,5.75
2019-02-16T07:21:49.581Z,7.30
2019-02-16T07:24:17.897Z,7.08
2019-02-16T07:26:46.129Z,6.70
2019-02-16T07:29:14.507Z,7.55
2019-02-16T07:31:43.081Z,7.97
2019-02-16T07:34:11.325Z,7.20
2019-02-16T07:36:39.563Z,9.60
2019-02-16T07:39:08.914Z,11.03
2019-02-16T07:41:37.118Z,13.25
2019-02-16T07:47:15.856Z,8.95
2019-02-16T07:49:59.172Z,7.35
2019-02-16T07:52:46.340Z,7.95
2019-02-16T07:55:27.125Z,6.60
2019-02-16T08:01:09.570Z,7.17
2019-02-16T08:03:44.602Z,7.03
2019-02-16T08:06:31.857Z,8.45
2019-02-16T08:09:17.188Z,7.60
2019-02-16T08:12:03.196Z,7.40
2019-02-16T08:15:00.322Z,7.15
2019-02-16T08:17:50.565Z,7.53
2019-02-16T08:20:37.783Z,4.65
2019-02-16T08:23:27.749Z,2.62
2019-02-16T08:26:15.145Z,2.92
2019-02-16T08:28:54.851Z,3.10
2019-02-16T08:31:28.814Z,2.92
2019-02-16T08:34:16.555Z,3.05
2019-02-16T08:37:09.993Z,2.58
2019-02-16T08:39:53.308Z,2.45
2019-02-16T08:42:40.929Z,2.60
2019-02-16T08:45:37.513Z,2.95
2019-02-16T08:48:15.989Z,2.62
2019-02-16T08:50:52.272Z,3.08
2019-02-16T08:53:38.270Z,3.37
2019-02-16T08:56:30.473Z,2.60
2019-02-16T08:59:26.659Z,2.60
2019-02-16T09:02:13.880Z,2.50
2019-02-16T09:04:52.267Z,2.20
2019-02-16T09:07:39.390Z,2.67
2019-02-16T09:10:27.240Z,2.20
2019-02-16T09:13:14.535Z,2.80
2019-02-16T09:16:01.860Z,3.08
2019-02-16T09:18:45.426Z,3.27
2019-02-16T09:21:32.551Z,2.75
2019-02-16T09:24:22.872Z,2.67
2019-02-16T09:27:15.283Z,3.05
2019-02-16T09:29:51.182Z,3.40
2019-02-16T09:32:33.454Z,2.83
2019-02-16T09:35:12.222Z,2.60
2019-02-16T09:37:51.912Z,2.92
2019-02-16T09:40:39.126Z,2.80
2019-02-16T09:43:35.675Z,3.05
2019-02-16T09:46:35.397Z,2.27
2019-02-16T09:49:12.638Z,3.30
2019-02-16T09:51:59.799Z,2.70
2019-02-16T09:54:45.608Z,2.92
2019-02-16T09:57:32.817Z,2.30
2019-02-16T10:00:11.590Z,2.50
2019-02-16T10:03:57.569Z,2.47
2019-02-16T10:06:00.193Z,2.70
2019-02-16T10:08:46.025Z,2.58
2019-02-16T10:11:34.466Z,2.42
2019-02-16T10:14:20.441Z,2.47
2019-02-16T10:17:01.982Z,3.22
2019-02-16T10:19:49.124Z,4.53
2019-02-16T10:22:37.207Z,2.98
2019-02-16T10:25:24.545Z,3.12
2019-02-16T10:28:10.665Z,3.35
2019-02-16T10:31:00.907Z,3.22
2019-02-16T10:33:46.968Z,2.75
2019-02-16T10:36:52.480Z,2.70
2019-02-16T10:39:42.637Z,2.12
2019-02-16T10:42:30.295Z,2.50
2019-02-16T10:45:04.565Z,2.40
2019-02-16T10:47:54.877Z,3.17
2019-02-16T10:50:38.610Z,3.45
2019-02-16T10:53:26.091Z,3.65
2019-02-16T10:56:01.715Z,2.40
2019-02-16T10:58:42.147Z,3.52
2019-02-16T11:04:16.494Z,2.45
2019-02-16T11:07:06.836Z,3.00
2019-02-16T11:12:31.793Z,3.10
2019-02-16T11:15:24.934Z,2.87
2019-02-16T11:18:10.746Z,2.75
2019-02-16T11:20:56.620Z,2.70
2019-02-16T11:23:52.238Z,2.52
2019-02-16T11:26:28.718Z,2.45
2019-02-16T11:29:11.269Z,2.40
2019-02-16T11:32:01.698Z,2.50
2019-02-16T11:34:46.205Z,2.60
2019-02-16T11:37:19.202Z,2.08
2019-02-16T11:39:57.284Z,2.40
2019-02-16T11:42:47.577Z,2.25
2019-02-16T11:45:28.779Z,2.40
2019-02-16T11:48:09.213Z,2.50
2019-02-16T11:53:41.561Z,2.58
2019-02-16T11:56:30.741Z,2.37
2019-02-16T11:59:17.868Z,3.75
2019-02-16T12:02:08.066Z,2.33
2019-02-16T12:04:58.403Z,2.75
2019-02-16T12:10:35.818Z,2.22
2019-02-16T12:13:26.571Z,2.60
2019-02-16T12:16:26.079Z,2.50
2019-02-16T12:19:32.038Z,3.03
2019-02-16T12:22:25.948Z,2.47
2019-02-16T12:25:12.070Z,3.08
2019-02-16T12:28:01.261Z,3.00
2019-02-16T12:30:51.600Z,2.65
2019-02-16T12:33:38.287Z,3.45
2019-02-16T12:36:24.490Z,2.98
2019-02-16T12:39:11.744Z,2.60
2019-02-16T12:41:50.452Z,2.90
2019-02-16T12:44:55.918Z,2.60
2019-02-16T12:47:46.263Z,3.17
2019-02-16T12:50:33.426Z,2.50
2019-02-16T12:53:20.694Z,2.98
2019-02-16T12:56:06.606Z,3.02
2019-02-16T12:58:49.122Z,4.30
2019-02-16T13:01:36.417Z,2.95
2019-02-16T13:04:23.663Z,2.87
2019-02-16T13:07:11.189Z,3.37
2019-02-16T13:09:58.613Z,2.47
2019-02-16T13:12:39.213Z,3.42
2019-02-16T13:15:32.915Z,3.35
2019-02-16T13:18:28.308Z,2.92
2019-02-16T13:21:18.548Z,4.85
2019-02-16T13:24:00.105Z,3.80
2019-02-16T13:26:43.817Z,3.90
2019-02-16T13:29:37.370Z,3.75
2019-02-16T13:32:23.279Z,3.83
2019-02-16T13:35:09.282Z,3.37
2019-02-16T13:37:48.450Z,4.10
2019-02-16T13:40:44.670Z,3.00
2019-02-16T13:43:41.336Z,4.22
2019-02-16T13:46:27.198Z,3.98
2019-02-16T13:49:17.386Z,4.78
2019-02-16T13:52:10.666Z,3.67
2019-02-16T13:54:53.049Z,4.20
2019-02-16T13:57:38.761Z,3.75
2019-02-16T14:00:27.952Z,3.98
2019-02-16T14:03:17.993Z,4.40
2019-02-16T14:06:14.911Z,3.20
2019-02-16T14:09:17.202Z,3.65
2019-02-16T14:12:13.697Z,3.95
2019-02-16T14:14:48.823Z,3.98
2019-02-16T14:17:34.839Z,4.65
2019-02-16T14:20:03.255Z,3.12
2019-02-16T14:22:31.770Z,3.87
2019-02-16T14:25:02.178Z,4.30
2019-02-16T14:27:30.518Z,4.80
2019-02-16T14:29:58.869Z,3.47
2019-02-16T14:32:27.589Z,3.25
2019-02-16T14:34:56.346Z,4.53
2019-02-16T14:37:55.776Z,3.67
2019-02-16T14:40:27.704Z,4.20
2019-02-16T14:42:56.254Z,4.65
2019-02-16T14:45:24.499Z,4.10
2019-02-16T14:47:57.576Z,4.53
2019-02-16T14:50:25.868Z,3.60
2019-02-16T14:52:54.378Z,4.62
2019-02-16T14:55:22.771Z,4.42
2019-02-16T14:57:51.170Z,4.17
2019-02-16T15:00:20.361Z,4.22
2019-02-16T15:02:49.023Z,4.10
2019-02-16T15:05:17.459Z,1.90
2019-02-16T15:07:45.875Z,3.92
2019-02-16T15:10:14.206Z,3.35
2019-02-16T15:12:42.856Z,4.50
2019-02-16T15:15:11.116Z,3.12
2019-02-16T15:17:39.453Z,4.37
2019-02-16T15:20:09.264Z,3.55
2019-02-16T15:22:37.483Z,3.80
2019-02-16T15:25:06.327Z,4.28
2019-02-16T15:27:34.515Z,4.17
2019-02-16T15:30:03.029Z,5.30
2019-02-16T15:32:31.318Z,4.08
2019-02-16T15:34:59.483Z,4.70
2019-02-16T15:37:27.778Z,5.60
2019-02-16T15:39:55.992Z,5.75
2019-02-16T15:42:24.389Z,5.25
2019-02-16T15:44:52.657Z,4.75
2019-02-16T15:47:20.878Z,5.28
2019-02-16T15:49:49.074Z,2.20
2019-02-16T15:52:17.476Z,6.58
2019-02-16T15:54:46.099Z,6.55
2019-02-16T15:57:14.402Z,5.65
2019-02-16T15:59:42.633Z,5.50
2019-02-16T16:02:10.874Z,4.00
2019-02-16T16:04:39.230Z,5.47
2019-02-16T16:07:12.581Z,4.90
2019-02-16T16:10:08.962Z,5.20
2019-02-16T16:12:56.843Z,5.78
2019-02-16T16:15:44.799Z,6.75
2019-02-16T16:18:23.048Z,7.97
2019-02-16T16:21:09.036Z,6.70
2019-02-16T16:23:56.287Z,6.97
2019-02-16T16:26:49.415Z,6.40
2019-02-16T16:29:54.794Z,6.17
2019-02-16T16:32:32.691Z,6.58
2019-02-16T16:35:13.128Z,6.80
2019-02-16T16:40:52.148Z,6.67
2019-02-16T16:43:31.971Z,6.40
2019-02-16T16:46:21.237Z,6.50
2019-02-16T16:49:20.618Z,6.58
2019-02-16T16:52:14.202Z,6.78
2019-02-16T16:54:58.951Z,5.92
2019-02-16T16:57:44.740Z,7.33
2019-02-16T17:00:34.934Z,6.65
2019-02-16T17:03:21.280Z,5.85
2019-02-16T17:06:09.055Z,7.17
2019-02-16T17:08:59.491Z,6.00
2019-02-16T17:11:46.712Z,6.42
2019-02-16T17:14:22.740Z,5.97
2019-02-16T17:17:13.152Z,6.33
2019-02-16T17:20:15.834Z,8.08
2019-02-16T17:23:06.164Z,10.55
2019-02-16T17:25:52.138Z,8.75
2019-02-16T17:28:39.994Z,9.00
2019-02-16T17:31:26.449Z,6.53
2019-02-16T17:34:12.438Z,8.93
2019-02-16T17:36:49.516Z,10.38
2019-02-16T17:39:31.471Z,9.33
2019-02-16T17:42:20.705Z,8.58
2019-02-16T17:45:06.596Z,8.43
2019-02-16T17:48:11.729Z,8.83
2019-02-16T17:50:49.179Z,10.65
2019-02-16T17:53:44.893Z,8.55
2019-02-16T17:56:18.687Z,8.65
2019-02-16T17:59:06.002Z,10.48
2019-02-16T18:01:51.884Z,9.73
2019-02-16T18:04:39.172Z,9.75
2019-02-16T18:07:26.340Z,8.45
2019-02-16T18:10:26.154Z,7.83
2019-02-16T18:13:13.490Z,9.37
2019-02-16T18:15:59.454Z,8.93
2019-02-16T18:18:46.662Z,9.05
2019-02-16T18:21:46.507Z,8.53
2019-02-16T18:24:25.111Z,8.60
2019-02-16T18:27:02.943Z,8.05
2019-02-16T18:29:51.889Z,8.10
2019-02-16T18:32:42.173Z,8.13
2019-02-16T18:35:28.663Z,7.55
2019-02-16T18:38:19.080Z,8.08
2019-02-16T18:41:05.182Z,7.62
2019-02-16T18:43:54.400Z,7.35
2019-02-16T18:46:41.520Z,7.20
2019-02-16T18:49:29.114Z,7.37
2019-02-16T18:52:23.092Z,7.47
2019-02-16T18:55:16.006Z,7.12
2019-02-16T18:58:06.439Z,6.37
2019-02-16T19:00:50.803Z,6.72
2019-02-16T19:03:37.971Z,9.88
2019-02-16T19:06:25.377Z,9.00
2019-02-16T19:09:15.606Z,8.68
2019-02-16T19:12:02.204Z,7.62
2019-02-16T19:14:55.721Z,7.50
2019-02-16T19:17:48.740Z,5.58
2019-02-16T19:20:42.751Z,7.28
2019-02-16T19:23:38.979Z,8.28
2019-02-16T19:26:26.235Z,6.87
2019-02-16T19:29:05.241Z,7.10
2019-02-16T19:31:42.923Z,8.65
2019-02-16T19:34:28.814Z,8.23
2019-02-16T19:37:19.058Z,6.78
2019-02-16T19:40:09.527Z,7.15
2019-02-16T19:42:47.190Z,6.62
2019-02-16T19:45:32.065Z,7.25
2019-02-16T19:48:20.083Z,7.12
2019-02-16T19:51:08.650Z,6.37
2019-02-16T19:54:03.712Z,6.45
2019-02-16T19:56:51.748Z,6.50
2019-02-16T19:59:39.702Z,6.53
2019-02-16T20:02:25.513Z,6.90
2019-02-16T20:05:16.252Z,7.08
2019-02-16T20:08:07.593Z,5.42
2019-02-16T20:10:48.303Z,8.63
2019-02-16T20:16:12.896Z,7.42
2019-02-16T20:18:59.658Z,8.85
2019-02-16T20:21:45.901Z,10.75
2019-02-16T20:24:33.894Z,9.48
2019-02-16T20:27:15.915Z,7.62
2019-02-16T20:30:11.372Z,9.20
2019-02-16T20:32:59.141Z,10.82
2019-02-16T20:35:46.005Z,9.13
2019-02-16T20:38:23.833Z,6.33
2019-02-16T20:41:26.251Z,7.80
2019-02-16T20:44:13.764Z,8.15
2019-02-16T20:47:02.681Z,11.73
2019-02-16T20:49:49.867Z,12.23
2019-02-16T20:52:25.390Z,11.00
2019-02-16T20:55:18.657Z,8.43
2019-02-16T20:57:57.583Z,9.28
2019-02-16T21:00:43.836Z,10.00
2019-02-16T21:03:22.007Z,8.78
2019-02-16T21:06:12.666Z,10.03
2019-02-16T21:09:00.399Z,7.92
2019-02-16T21:11:47.703Z,9.95
2019-02-16T21:14:41.353Z,10.15
2019-02-16T21:17:28.693Z,18.42
2019-02-16T21:20:18.981Z,20.65
2019-02-16T21:23:05.230Z,13.30
2019-02-16T21:25:46.683Z,13.48
2019-02-16T21:28:24.291Z,9.30
2019-02-16T21:31:11.179Z,7.47
2019-02-16T21:33:58.392Z,9.23
2019-02-16T21:36:41.150Z,7.92
2019-02-16T21:39:28.376Z,7.60
2019-02-16T21:42:15.514Z,9.35
2019-02-16T21:45:02.761Z,9.40
2019-02-16T21:47:39.869Z,8.20
2019-02-16T21:50:29.569Z,9.45
2019-02-16T21:53:28.992Z,8.80
2019-02-16T21:56:14.988Z,11.30
2019-02-16T21:59:02.162Z,7.75
2019-02-16T22:01:49.420Z,8.93
2019-02-16T22:04:35.461Z,9.10
2019-02-16T22:07:32.436Z,9.40
2019-02-16T22:10:07.503Z,8.48
2019-02-16T22:13:00.945Z,8.15
2019-02-16T22:15:29.188Z,8.28
2019-02-16T22:18:00.448Z,7.28
2019-02-16T22:20:28.593Z,7.30
2019-02-16T22:22:57.007Z,6.97
2019-02-16T22:25:25.357Z,6.83
2019-02-16T22:27:53.645Z,6.80
2019-02-16T22:30:21.881Z,6.42
2019-02-16T22:32:50.227Z,6.65
2019-02-16T22:35:18.492Z,7.33
2019-02-16T22:37:46.863Z,7.33
2019-02-16T22:40:15.298Z,7.53
2019-02-16T22:42:43.526Z,6.95
2019-02-16T22:45:11.733Z,8.03
2019-02-16T22:47:40.202Z,7.60
2019-02-16T22:50:10.111Z,7.55
2019-02-16T22:52:38.346Z,7.25
2019-02-16T22:55:06.766Z,6.75
2019-02-16T22:57:35.124Z,7.80
2019-02-16T23:00:03.538Z,8.13
2019-02-16T23:02:31.681Z,6.12
2019-02-16T23:04:59.915Z,7.30
2019-02-16T23:07:28.214Z,6.70
2019-02-16T23:09:56.427Z,6.95
2019-02-16T23:12:24.815Z,7.85
2019-02-16T23:14:52.973Z,6.72
2019-02-16T23:17:21.280Z,7.58
2019-02-16T23:19:49.471Z,7.22
2019-02-16T23:22:17.807Z,7.30
2019-02-16T23:24:46.458Z,10.10
2019-02-16T23:27:14.576Z,8.53
2019-02-16T23:29:42.856Z,8.68
2019-02-16T23:32:17.437Z,7.67
2019-02-16T23:34:45.646Z,8.00
2019-02-16T23:37:13.884Z,9.60
2019-02-16T23:39:42.100Z,10.53
2019-02-16T23:42:10.545Z,10.35
2019-02-16T23:44:38.877Z,9.18
2019-02-16T23:47:07.120Z,6.50
2019-02-16T23:49:35.391Z,10.48
2019-02-16T23:52:10.816Z,10.23
2019-02-16T23:54:39.366Z,8.38
2019-02-16T23:57:07.598Z,7.95
2019-02-16T23:59:36.054Z,9.48
